sensor_id;sensor_type;location;lat;lon;timestamp;P1;durP1;ratioP1;P2;durP2;ratioP2
25015;SDS011;13029;46.286;7.488;2022-10-16T00:01:32;0.52;;;0.40;;
25015;SDS011;13029;46.286;7.488;2022-10-16T00:03:57;2.20;;;0.60;;
25015;SDS011;13029;46.286;7.488;2022-10-16T00:06:24;1.52;;;0.40;;
25015;SDS011;13029;46.286;7.488;2022-10-16T00:08:50;3.35;;;0.45;;
25015;SDS011;13029;46.286;7.488;2022-10-16T00:11:17;0.40;;;0.40;;
25015;SDS011;13029;46.286;7.488;2022-10-16T00:13:47;0.80;;;0.50;;
25015;SDS011;13029;46.286;7.488;2022-10-16T00:16:14;0.50;;;0.50;;
25015;SDS011;13029;46.286;7.488;2022-10-16T00:18:40;0.70;;;0.47;;
25015;SDS011;13029;46.286;7.488;2022-10-16T00:21:17;0.47;;;0.47;;
25015;SDS011;13029;46.286;7.488;2022-10-16T00:23:44;0.70;;;0.50;;
25015;SDS011;13029;46.286;7.488;2022-10-16T00:26:11;1.05;;;0.57;;
25015;SDS011;13029;46.286;7.488;2022-10-16T00:28:38;1.85;;;0.50;;
25015;SDS011;13029;46.286;7.488;2022-10-16T00:31:04;1.75;;;0.50;;
25015;SDS011;13029;46.286;7.488;2022-10-16T00:33:34;1.85;;;0.60;;
25015;SDS011;13029;46.286;7.488;2022-10-16T00:35:59;1.13;;;0.55;;
25015;SDS011;13029;46.286;7.488;2022-10-16T00:38:25;0.70;;;0.47;;
25015;SDS011;13029;46.286;7.488;2022-10-16T00:40:51;3.33;;;0.57;;
25015;SDS011;13029;46.286;7.488;2022-10-16T00:43:36;0.82;;;0.60;;
25015;SDS011;13029;46.286;7.488;2022-10-16T00:46:02;2.83;;;0.60;;
25015;SDS011;13029;46.286;7.488;2022-10-16T00:48:29;0.85;;;0.57;;
25015;SDS011;13029;46.286;7.488;2022-10-16T00:50:54;0.73;;;0.50;;
25015;SDS011;13029;46.286;7.488;2022-10-16T00:53:20;1.70;;;0.47;;
25015;SDS011;13029;46.286;7.488;2022-10-16T00:55:46;0.60;;;0.60;;
25015;SDS011;13029;46.286;7.488;2022-10-16T00:58:11;0.38;;;0.38;;
25015;SDS011;13029;46.286;7.488;2022-10-16T01:00:37;1.50;;;0.70;;
25015;SDS011;13029;46.286;7.488;2022-10-16T01:03:02;1.02;;;0.60;;
25015;SDS011;13029;46.286;7.488;2022-10-16T01:05:43;0.43;;;0.40;;
25015;SDS011;13029;46.286;7.488;2022-10-16T01:08:17;1.77;;;0.70;;
25015;SDS011;13029;46.286;7.488;2022-10-16T01:11:21;3.10;;;0.60;;
25015;SDS011;13029;46.286;7.488;2022-10-16T01:13:53;0.80;;;0.50;;
25015;SDS011;13029;46.286;7.488;2022-10-16T01:18:55;1.15;;;0.52;;
25015;SDS011;13029;46.286;7.488;2022-10-16T01:21:27;0.60;;;0.50;;
25015;SDS011;13029;46.286;7.488;2022-10-16T01:29:45;0.95;;;0.60;;
25015;SDS011;13029;46.286;7.488;2022-10-16T01:32:27;1.08;;;0.80;;
25015;SDS011;13029;46.286;7.488;2022-10-16T01:34:59;1.95;;;0.63;;
25015;SDS011;13029;46.286;7.488;2022-10-16T01:40:23;0.85;;;0.70;;
25015;SDS011;13029;46.286;7.488;2022-10-16T01:42:52;2.47;;;0.77;;
25015;SDS011;13029;46.286;7.488;2022-10-16T01:45:21;0.85;;;0.68;;
25015;SDS011;13029;46.286;7.488;2022-10-16T01:47:47;0.82;;;0.75;;
25015;SDS011;13029;46.286;7.488;2022-10-16T01:50:13;1.02;;;0.82;;
25015;SDS011;13029;46.286;7.488;2022-10-16T01:52:41;0.50;;;0.50;;
25015;SDS011;13029;46.286;7.488;2022-10-16T01:55:09;0.88;;;0.70;;
25015;SDS011;13029;46.286;7.488;2022-10-16T01:57:36;1.10;;;0.60;;
25015;SDS011;13029;46.286;7.488;2022-10-16T02:00:05;1.00;;;0.68;;
25015;SDS011;13029;46.286;7.488;2022-10-16T02:02:33;0.50;;;0.45;;
25015;SDS011;13029;46.286;7.488;2022-10-16T02:05:08;0.70;;;0.50;;
25015;SDS011;13029;46.286;7.488;2022-10-16T02:07:43;0.50;;;0.50;;
25015;SDS011;13029;46.286;7.488;2022-10-16T02:10:09;2.88;;;0.50;;
25015;SDS011;13029;46.286;7.488;2022-10-16T02:12:35;2.63;;;0.70;;
25015;SDS011;13029;46.286;7.488;2022-10-16T02:15:04;1.97;;;0.80;;
25015;SDS011;13029;46.286;7.488;2022-10-16T02:17:30;0.60;;;0.50;;
25015;SDS011;13029;46.286;7.488;2022-10-16T02:19:56;0.93;;;0.60;;
25015;SDS011;13029;46.286;7.488;2022-10-16T02:30:06;0.70;;;0.60;;
25015;SDS011;13029;46.286;7.488;2022-10-16T02:32:37;0.98;;;0.80;;
25015;SDS011;13029;46.286;7.488;2022-10-16T02:35:04;0.77;;;0.60;;
25015;SDS011;13029;46.286;7.488;2022-10-16T02:37:31;0.82;;;0.80;;
25015;SDS011;13029;46.286;7.488;2022-10-16T02:39:57;1.42;;;0.75;;
25015;SDS011;13029;46.286;7.488;2022-10-16T02:42:27;1.15;;;0.52;;
25015;SDS011;13029;46.286;7.488;2022-10-16T02:44:59;1.38;;;0.88;;
25015;SDS011;13029;46.286;7.488;2022-10-16T02:47:25;2.90;;;0.88;;
25015;SDS011;13029;46.286;7.488;2022-10-16T02:49:50;0.98;;;0.80;;
25015;SDS011;13029;46.286;7.488;2022-10-16T02:52:15;1.00;;;0.80;;
25015;SDS011;13029;46.286;7.488;2022-10-16T02:54:40;0.52;;;0.52;;
25015;SDS011;13029;46.286;7.488;2022-10-16T02:57:06;3.30;;;1.13;;
25015;SDS011;13029;46.286;7.488;2022-10-16T02:59:31;1.92;;;0.52;;
25015;SDS011;13029;46.286;7.488;2022-10-16T03:01:56;0.73;;;0.73;;
25015;SDS011;13029;46.286;7.488;2022-10-16T03:04:22;0.60;;;0.60;;
25015;SDS011;13029;46.286;7.488;2022-10-16T03:06:47;0.77;;;0.70;;
25015;SDS011;13029;46.286;7.488;2022-10-16T03:09:12;0.70;;;0.50;;
25015;SDS011;13029;46.286;7.488;2022-10-16T03:11:38;0.77;;;0.57;;
25015;SDS011;13029;46.286;7.488;2022-10-16T03:14:03;0.93;;;0.63;;
25015;SDS011;13029;46.286;7.488;2022-10-16T03:16:28;1.27;;;0.98;;
25015;SDS011;13029;46.286;7.488;2022-10-16T03:18:54;0.70;;;0.63;;
25015;SDS011;13029;46.286;7.488;2022-10-16T03:21:19;5.97;;;0.60;;
25015;SDS011;13029;46.286;7.488;2022-10-16T03:23:44;0.70;;;0.60;;
25015;SDS011;13029;46.286;7.488;2022-10-16T03:26:10;1.73;;;0.75;;
25015;SDS011;13029;46.286;7.488;2022-10-16T03:28:35;2.97;;;0.80;;
25015;SDS011;13029;46.286;7.488;2022-10-16T03:31:00;0.80;;;0.68;;
25015;SDS011;13029;46.286;7.488;2022-10-16T03:33:25;0.85;;;0.63;;
25015;SDS011;13029;46.286;7.488;2022-10-16T03:35:54;1.05;;;0.60;;
25015;SDS011;13029;46.286;7.488;2022-10-16T03:38:20;0.85;;;0.57;;
25015;SDS011;13029;46.286;7.488;2022-10-16T03:40:46;1.23;;;0.45;;
25015;SDS011;13029;46.286;7.488;2022-10-16T03:43:11;2.15;;;0.60;;
25015;SDS011;13029;46.286;7.488;2022-10-16T03:45:36;0.95;;;0.50;;
25015;SDS011;13029;46.286;7.488;2022-10-16T03:48:02;0.73;;;0.47;;
25015;SDS011;13029;46.286;7.488;2022-10-16T03:50:28;1.17;;;0.60;;
25015;SDS011;13029;46.286;7.488;2022-10-16T03:52:53;1.20;;;0.50;;
25015;SDS011;13029;46.286;7.488;2022-10-16T03:55:19;1.15;;;0.50;;
25015;SDS011;13029;46.286;7.488;2022-10-16T03:57:44;0.50;;;0.50;;
25015;SDS011;13029;46.286;7.488;2022-10-16T04:00:09;0.95;;;0.70;;
25015;SDS011;13029;46.286;7.488;2022-10-16T04:02:35;1.05;;;0.60;;
25015;SDS011;13029;46.286;7.488;2022-10-16T04:05:01;1.05;;;0.65;;
25015;SDS011;13029;46.286;7.488;2022-10-16T04:07:26;1.20;;;0.70;;
25015;SDS011;13029;46.286;7.488;2022-10-16T04:09:51;0.80;;;0.50;;
25015;SDS011;13029;46.286;7.488;2022-10-16T04:12:17;0.75;;;0.60;;
25015;SDS011;13029;46.286;7.488;2022-10-16T04:14:42;1.00;;;0.63;;
25015;SDS011;13029;46.286;7.488;2022-10-16T04:17:07;2.47;;;0.63;;
25015;SDS011;13029;46.286;7.488;2022-10-16T04:19:33;1.35;;;0.70;;
25015;SDS011;13029;46.286;7.488;2022-10-16T04:21:58;0.60;;;0.60;;
25015;SDS011;13029;46.286;7.488;2022-10-16T04:24:23;1.13;;;0.60;;
25015;SDS011;13029;46.286;7.488;2022-10-16T04:26:49;1.17;;;0.60;;
25015;SDS011;13029;46.286;7.488;2022-10-16T04:29:14;0.80;;;0.80;;
25015;SDS011;13029;46.286;7.488;2022-10-16T04:31:39;1.25;;;0.60;;
25015;SDS011;13029;46.286;7.488;2022-10-16T04:34:05;0.60;;;0.50;;
25015;SDS011;13029;46.286;7.488;2022-10-16T04:36:30;1.90;;;1.00;;
25015;SDS011;13029;46.286;7.488;2022-10-16T04:38:55;0.75;;;0.75;;
25015;SDS011;13029;46.286;7.488;2022-10-16T04:41:21;2.28;;;0.52;;
25015;SDS011;13029;46.286;7.488;2022-10-16T04:43:46;1.15;;;0.45;;
25015;SDS011;13029;46.286;7.488;2022-10-16T04:46:12;3.95;;;0.50;;
25015;SDS011;13029;46.286;7.488;2022-10-16T04:48:37;1.27;;;0.60;;
25015;SDS011;13029;46.286;7.488;2022-10-16T04:51:02;0.63;;;0.60;;
25015;SDS011;13029;46.286;7.488;2022-10-16T04:53:28;2.35;;;0.95;;
25015;SDS011;13029;46.286;7.488;2022-10-16T04:55:53;0.98;;;0.55;;
25015;SDS011;13029;46.286;7.488;2022-10-16T04:58:18;0.60;;;0.55;;
25015;SDS011;13029;46.286;7.488;2022-10-16T05:00:44;0.50;;;0.50;;
25015;SDS011;13029;46.286;7.488;2022-10-16T05:03:10;1.55;;;0.57;;
25015;SDS011;13029;46.286;7.488;2022-10-16T05:05:36;0.82;;;0.50;;
25015;SDS011;13029;46.286;7.488;2022-10-16T05:08:01;4.20;;;0.60;;
25015;SDS011;13029;46.286;7.488;2022-10-16T05:10:27;2.13;;;0.45;;
25015;SDS011;13029;46.286;7.488;2022-10-16T05:12:53;1.10;;;0.50;;
25015;SDS011;13029;46.286;7.488;2022-10-16T05:15:18;0.40;;;0.40;;
25015;SDS011;13029;46.286;7.488;2022-10-16T05:17:43;0.68;;;0.50;;
25015;SDS011;13029;46.286;7.488;2022-10-16T05:20:09;0.82;;;0.50;;
25015;SDS011;13029;46.286;7.488;2022-10-16T05:22:34;1.40;;;0.55;;
25015;SDS011;13029;46.286;7.488;2022-10-16T05:24:59;0.82;;;0.80;;
25015;SDS011;13029;46.286;7.488;2022-10-16T05:27:25;1.17;;;0.60;;
25015;SDS011;13029;46.286;7.488;2022-10-16T05:29:50;0.73;;;0.40;;
25015;SDS011;13029;46.286;7.488;2022-10-16T05:32:16;0.70;;;0.63;;
25015;SDS011;13029;46.286;7.488;2022-10-16T05:34:42;1.45;;;0.80;;
25015;SDS011;13029;46.286;7.488;2022-10-16T05:37:07;2.20;;;0.57;;
25015;SDS011;13029;46.286;7.488;2022-10-16T05:39:33;1.25;;;0.65;;
25015;SDS011;13029;46.286;7.488;2022-10-16T05:41:58;0.55;;;0.50;;
25015;SDS011;13029;46.286;7.488;2022-10-16T05:44:23;1.90;;;0.68;;
25015;SDS011;13029;46.286;7.488;2022-10-16T05:46:49;0.77;;;0.60;;
25015;SDS011;13029;46.286;7.488;2022-10-16T05:49:14;0.57;;;0.55;;
25015;SDS011;13029;46.286;7.488;2022-10-16T05:51:40;4.53;;;0.60;;
25015;SDS011;13029;46.286;7.488;2022-10-16T05:54:06;3.17;;;1.02;;
25015;SDS011;13029;46.286;7.488;2022-10-16T05:56:31;0.75;;;0.70;;
25015;SDS011;13029;46.286;7.488;2022-10-16T05:58:57;0.60;;;0.60;;
25015;SDS011;13029;46.286;7.488;2022-10-16T06:01:22;0.88;;;0.60;;
25015;SDS011;13029;46.286;7.488;2022-10-16T06:03:49;2.25;;;0.60;;
25015;SDS011;13029;46.286;7.488;2022-10-16T06:06:16;1.95;;;0.60;;
25015;SDS011;13029;46.286;7.488;2022-10-16T06:08:43;2.80;;;0.80;;
25015;SDS011;13029;46.286;7.488;2022-10-16T06:11:11;1.48;;;0.52;;
25015;SDS011;13029;46.286;7.488;2022-10-16T06:13:38;3.00;;;1.17;;
25015;SDS011;13029;46.286;7.488;2022-10-16T06:16:06;1.50;;;0.63;;
25015;SDS011;13029;46.286;7.488;2022-10-16T06:18:32;0.52;;;0.52;;
25015;SDS011;13029;46.286;7.488;2022-10-16T06:20:57;1.35;;;0.80;;
25015;SDS011;13029;46.286;7.488;2022-10-16T06:23:23;0.60;;;0.60;;
25015;SDS011;13029;46.286;7.488;2022-10-16T06:25:49;0.63;;;0.63;;
25015;SDS011;13029;46.286;7.488;2022-10-16T06:28:14;0.57;;;0.57;;
25015;SDS011;13029;46.286;7.488;2022-10-16T06:30:40;2.38;;;0.80;;
25015;SDS011;13029;46.286;7.488;2022-10-16T06:33:05;2.65;;;0.80;;
25015;SDS011;13029;46.286;7.488;2022-10-16T06:35:31;0.63;;;0.63;;
25015;SDS011;13029;46.286;7.488;2022-10-16T06:37:57;1.92;;;0.70;;
25015;SDS011;13029;46.286;7.488;2022-10-16T06:40:22;0.60;;;0.60;;
25015;SDS011;13029;46.286;7.488;2022-10-16T06:42:47;3.05;;;0.93;;
25015;SDS011;13029;46.286;7.488;2022-10-16T06:45:13;1.02;;;0.70;;
25015;SDS011;13029;46.286;7.488;2022-10-16T06:47:38;1.83;;;0.70;;
25015;SDS011;13029;46.286;7.488;2022-10-16T06:50:04;1.08;;;0.70;;
25015;SDS011;13029;46.286;7.488;2022-10-16T06:52:31;1.52;;;0.70;;
25015;SDS011;13029;46.286;7.488;2022-10-16T06:54:56;0.70;;;0.60;;
25015;SDS011;13029;46.286;7.488;2022-10-16T06:57:22;1.10;;;0.60;;
25015;SDS011;13029;46.286;7.488;2022-10-16T06:59:47;0.95;;;0.70;;
25015;SDS011;13029;46.286;7.488;2022-10-16T07:02:12;1.13;;;0.90;;
25015;SDS011;13029;46.286;7.488;2022-10-16T07:04:38;0.93;;;0.60;;
25015;SDS011;13029;46.286;7.488;2022-10-16T07:07:03;1.52;;;0.88;;
25015;SDS011;13029;46.286;7.488;2022-10-16T07:09:28;3.63;;;1.05;;
25015;SDS011;13029;46.286;7.488;2022-10-16T07:11:54;1.38;;;1.13;;
25015;SDS011;13029;46.286;7.488;2022-10-16T07:14:19;1.92;;;0.90;;
25015;SDS011;13029;46.286;7.488;2022-10-16T07:16:45;2.33;;;0.77;;
25015;SDS011;13029;46.286;7.488;2022-10-16T07:19:11;2.30;;;1.00;;
25015;SDS011;13029;46.286;7.488;2022-10-16T07:21:39;2.83;;;1.33;;
25015;SDS011;13029;46.286;7.488;2022-10-16T07:24:06;2.40;;;1.20;;
25015;SDS011;13029;46.286;7.488;2022-10-16T07:26:35;4.43;;;1.00;;
25015;SDS011;13029;46.286;7.488;2022-10-16T07:29:01;1.42;;;0.75;;
25015;SDS011;13029;46.286;7.488;2022-10-16T07:31:28;1.27;;;0.85;;
25015;SDS011;13029;46.286;7.488;2022-10-16T07:33:53;0.77;;;0.60;;
25015;SDS011;13029;46.286;7.488;2022-10-16T07:36:19;5.43;;;0.73;;
25015;SDS011;13029;46.286;7.488;2022-10-16T07:38:45;0.50;;;0.50;;
25015;SDS011;13029;46.286;7.488;2022-10-16T07:41:12;1.55;;;0.52;;
25015;SDS011;13029;46.286;7.488;2022-10-16T07:43:38;1.85;;;0.70;;
25015;SDS011;13029;46.286;7.488;2022-10-16T07:46:04;0.60;;;0.60;;
25015;SDS011;13029;46.286;7.488;2022-10-16T07:48:31;1.65;;;0.40;;
25015;SDS011;13029;46.286;7.488;2022-10-16T07:51:00;1.08;;;0.63;;
25015;SDS011;13029;46.286;7.488;2022-10-16T07:53:27;1.23;;;0.70;;
25015;SDS011;13029;46.286;7.488;2022-10-16T07:55:57;1.92;;;0.50;;
25015;SDS011;13029;46.286;7.488;2022-10-16T07:58:26;0.60;;;0.50;;
25015;SDS011;13029;46.286;7.488;2022-10-16T08:00:52;1.13;;;0.50;;
25015;SDS011;13029;46.286;7.488;2022-10-16T08:03:18;1.05;;;0.52;;
25015;SDS011;13029;46.286;7.488;2022-10-16T08:05:43;0.70;;;0.68;;
25015;SDS011;13029;46.286;7.488;2022-10-16T08:08:11;0.40;;;0.40;;
25015;SDS011;13029;46.286;7.488;2022-10-16T08:10:41;0.70;;;0.55;;
25015;SDS011;13029;46.286;7.488;2022-10-16T08:13:06;0.75;;;0.60;;
25015;SDS011;13029;46.286;7.488;2022-10-16T08:15:32;0.82;;;0.60;;
25015;SDS011;13029;46.286;7.488;2022-10-16T08:17:58;1.88;;;0.50;;
25015;SDS011;13029;46.286;7.488;2022-10-16T08:20:24;1.17;;;0.70;;
25015;SDS011;13029;46.286;7.488;2022-10-16T08:22:50;1.00;;;0.70;;
25015;SDS011;13029;46.286;7.488;2022-10-16T08:25:16;0.73;;;0.63;;
25015;SDS011;13029;46.286;7.488;2022-10-16T08:27:41;0.80;;;0.55;;
25015;SDS011;13029;46.286;7.488;2022-10-16T08:30:07;1.00;;;0.68;;
25015;SDS011;13029;46.286;7.488;2022-10-16T08:32:33;1.30;;;0.63;;
25015;SDS011;13029;46.286;7.488;2022-10-16T08:34:58;1.35;;;0.60;;
25015;SDS011;13029;46.286;7.488;2022-10-16T08:37:23;1.63;;;0.60;;
25015;SDS011;13029;46.286;7.488;2022-10-16T08:39:48;4.47;;;0.93;;
25015;SDS011;13029;46.286;7.488;2022-10-16T08:45:05;1.05;;;0.52;;
25015;SDS011;13029;46.286;7.488;2022-10-16T08:47:49;2.25;;;0.70;;
25015;SDS011;13029;46.286;7.488;2022-10-16T08:50:41;2.35;;;0.73;;
25015;SDS011;13029;46.286;7.488;2022-10-16T08:53:06;4.25;;;0.63;;
25015;SDS011;13029;46.286;7.488;2022-10-16T08:55:42;2.05;;;0.60;;
25015;SDS011;13029;46.286;7.488;2022-10-16T08:58:12;0.93;;;0.70;;
25015;SDS011;13029;46.286;7.488;2022-10-16T09:00:38;1.63;;;0.63;;
25015;SDS011;13029;46.286;7.488;2022-10-16T09:03:17;0.77;;;0.50;;
25015;SDS011;13029;46.286;7.488;2022-10-16T09:11:11;2.40;;;0.80;;
25015;SDS011;13029;46.286;7.488;2022-10-16T09:16:28;1.23;;;0.70;;
25015;SDS011;13029;46.286;7.488;2022-10-16T09:19:00;2.88;;;0.80;;
25015;SDS011;13029;46.286;7.488;2022-10-16T09:21:38;1.13;;;0.90;;
25015;SDS011;13029;46.286;7.488;2022-10-16T09:26:42;3.47;;;1.40;;
25015;SDS011;13029;46.286;7.488;2022-10-16T09:29:15;2.42;;;1.20;;
25015;SDS011;13029;46.286;7.488;2022-10-16T09:31:42;2.08;;;1.02;;
25015;SDS011;13029;46.286;7.488;2022-10-16T09:36:51;2.28;;;1.20;;
25015;SDS011;13029;46.286;7.488;2022-10-16T09:39:17;2.28;;;1.50;;
25015;SDS011;13029;46.286;7.488;2022-10-16T09:41:43;2.75;;;1.42;;
25015;SDS011;13029;46.286;7.488;2022-10-16T09:44:29;2.40;;;1.70;;
25015;SDS011;13029;46.286;7.488;2022-10-16T09:47:05;4.38;;;1.08;;
25015;SDS011;13029;46.286;7.488;2022-10-16T09:49:38;1.30;;;0.70;;
25015;SDS011;13029;46.286;7.488;2022-10-16T09:52:10;3.47;;;1.35;;
25015;SDS011;13029;46.286;7.488;2022-10-16T09:54:37;1.30;;;0.63;;
25015;SDS011;13029;46.286;7.488;2022-10-16T09:57:14;2.47;;;0.70;;
25015;SDS011;13029;46.286;7.488;2022-10-16T09:59:49;2.50;;;0.93;;
25015;SDS011;13029;46.286;7.488;2022-10-16T10:02:16;1.75;;;0.68;;
25015;SDS011;13029;46.286;7.488;2022-10-16T10:04:50;0.80;;;0.80;;
25015;SDS011;13029;46.286;7.488;2022-10-16T10:07:21;1.35;;;1.02;;
25015;SDS011;13029;46.286;7.488;2022-10-16T10:09:49;1.63;;;0.70;;
25015;SDS011;13029;46.286;7.488;2022-10-16T10:12:17;1.73;;;0.80;;
25015;SDS011;13029;46.286;7.488;2022-10-16T10:14:50;0.90;;;0.80;;
25015;SDS011;13029;46.286;7.488;2022-10-16T10:17:21;1.02;;;0.73;;
25015;SDS011;13029;46.286;7.488;2022-10-16T10:19:52;0.90;;;0.75;;
25015;SDS011;13029;46.286;7.488;2022-10-16T10:22:25;1.00;;;0.90;;
25015;SDS011;13029;46.286;7.488;2022-10-16T10:24:56;0.82;;;0.80;;
25015;SDS011;13029;46.286;7.488;2022-10-16T10:27:27;1.13;;;0.82;;
25015;SDS011;13029;46.286;7.488;2022-10-16T10:30:02;0.70;;;0.70;;
25015;SDS011;13029;46.286;7.488;2022-10-16T10:32:39;3.42;;;0.98;;
25015;SDS011;13029;46.286;7.488;2022-10-16T10:35:17;2.55;;;0.88;;
25015;SDS011;13029;46.286;7.488;2022-10-16T10:37:51;2.10;;;0.80;;
25015;SDS011;13029;46.286;7.488;2022-10-16T10:41:32;2.58;;;0.63;;
25015;SDS011;13029;46.286;7.488;2022-10-16T10:43:41;1.67;;;1.10;;
25015;SDS011;13029;46.286;7.488;2022-10-16T10:46:36;1.67;;;0.90;;
25015;SDS011;13029;46.286;7.488;2022-10-16T10:49:13;2.35;;;0.88;;
25015;SDS011;13029;46.286;7.488;2022-10-16T10:51:53;2.88;;;0.80;;
25015;SDS011;13029;46.286;7.488;2022-10-16T10:54:28;1.55;;;0.98;;
25015;SDS011;13029;46.286;7.488;2022-10-16T10:57:16;1.85;;;0.93;;
25015;SDS011;13029;46.286;7.488;2022-10-16T11:02:38;2.92;;;0.95;;
25015;SDS011;13029;46.286;7.488;2022-10-16T11:05:19;4.47;;;0.80;;
25015;SDS011;13029;46.286;7.488;2022-10-16T11:08:32;1.73;;;0.73;;
25015;SDS011;13029;46.286;7.488;2022-10-16T11:10:44;3.60;;;1.02;;
25015;SDS011;13029;46.286;7.488;2022-10-16T11:16:13;1.20;;;1.10;;
25015;SDS011;13029;46.286;7.488;2022-10-16T11:21:22;1.90;;;1.23;;
25015;SDS011;13029;46.286;7.488;2022-10-16T11:26:44;1.10;;;1.10;;
25015;SDS011;13029;46.286;7.488;2022-10-16T11:29:20;4.03;;;1.50;;
25015;SDS011;13029;46.286;7.488;2022-10-16T11:31:49;1.10;;;1.00;;
25015;SDS011;13029;46.286;7.488;2022-10-16T11:39:20;2.65;;;1.20;;
25015;SDS011;13029;46.286;7.488;2022-10-16T11:44:42;1.02;;;0.93;;
25015;SDS011;13029;46.286;7.488;2022-10-16T11:52:53;1.73;;;1.20;;
25015;SDS011;13029;46.286;7.488;2022-10-16T11:55:24;1.25;;;1.00;;
25015;SDS011;13029;46.286;7.488;2022-10-16T11:58:01;2.17;;;1.10;;
25015;SDS011;13029;46.286;7.488;2022-10-16T12:01:33;1.00;;;0.90;;
25015;SDS011;13029;46.286;7.488;2022-10-16T12:08:45;1.85;;;1.13;;
25015;SDS011;13029;46.286;7.488;2022-10-16T12:13:51;1.17;;;1.08;;
25015;SDS011;13029;46.286;7.488;2022-10-16T12:18:46;1.33;;;1.02;;
25015;SDS011;13029;46.286;7.488;2022-10-16T12:21:12;1.35;;;1.10;;
25015;SDS011;13029;46.286;7.488;2022-10-16T12:23:47;1.48;;;0.95;;
25015;SDS011;13029;46.286;7.488;2022-10-16T12:26:14;1.10;;;1.00;;
25015;SDS011;13029;46.286;7.488;2022-10-16T12:28:49;1.23;;;1.13;;
25015;SDS011;13029;46.286;7.488;2022-10-16T12:31:16;2.53;;;1.00;;
25015;SDS011;13029;46.286;7.488;2022-10-16T12:33:50;2.15;;;0.90;;
25015;SDS011;13029;46.286;7.488;2022-10-16T12:36:32;1.98;;;0.93;;
25015;SDS011;13029;46.286;7.488;2022-10-16T12:38:58;0.90;;;0.90;;
25015;SDS011;13029;46.286;7.488;2022-10-16T12:41:33;1.65;;;0.88;;
25015;SDS011;13029;46.286;7.488;2022-10-16T12:44:01;2.35;;;1.00;;
25015;SDS011;13029;46.286;7.488;2022-10-16T12:51:38;1.60;;;0.95;;
25015;SDS011;13029;46.286;7.488;2022-10-16T13:02:26;2.33;;;0.90;;
25015;SDS011;13029;46.286;7.488;2022-10-16T13:07:41;1.50;;;0.90;;
25015;SDS011;13029;46.286;7.488;2022-10-16T13:10:23;1.17;;;0.80;;
25015;SDS011;13029;46.286;7.488;2022-10-16T13:15:37;1.48;;;0.90;;
25015;SDS011;13029;46.286;7.488;2022-10-16T13:28:49;4.20;;;1.00;;
25015;SDS011;13029;46.286;7.488;2022-10-16T13:31:17;1.15;;;1.00;;
25015;SDS011;13029;46.286;7.488;2022-10-16T13:33:50;1.52;;;1.05;;
25015;SDS011;13029;46.286;7.488;2022-10-16T13:36:24;3.63;;;1.00;;
25015;SDS011;13029;46.286;7.488;2022-10-16T13:41:34;2.45;;;1.13;;
25015;SDS011;13029;46.286;7.488;2022-10-16T13:43:59;1.98;;;1.00;;
25015;SDS011;13029;46.286;7.488;2022-10-16T13:46:25;1.15;;;0.80;;
25015;SDS011;13029;46.286;7.488;2022-10-16T13:51:23;1.20;;;1.10;;
25015;SDS011;13029;46.286;7.488;2022-10-16T13:53:48;7.15;;;1.00;;
25015;SDS011;13029;46.286;7.488;2022-10-16T13:56:15;3.13;;;1.00;;
25015;SDS011;13029;46.286;7.488;2022-10-16T13:58:42;1.30;;;1.10;;
25015;SDS011;13029;46.286;7.488;2022-10-16T14:01:15;1.15;;;1.00;;
25015;SDS011;13029;46.286;7.488;2022-10-16T14:03:43;1.48;;;1.00;;
25015;SDS011;13029;46.286;7.488;2022-10-16T14:06:13;1.35;;;1.20;;
25015;SDS011;13029;46.286;7.488;2022-10-16T14:09:17;1.70;;;1.10;;
25015;SDS011;13029;46.286;7.488;2022-10-16T14:11:45;0.85;;;0.85;;
25015;SDS011;13029;46.286;7.488;2022-10-16T14:14:16;1.25;;;0.90;;
25015;SDS011;13029;46.286;7.488;2022-10-16T14:16:42;1.20;;;1.00;;
25015;SDS011;13029;46.286;7.488;2022-10-16T14:19:45;1.88;;;0.98;;
25015;SDS011;13029;46.286;7.488;2022-10-16T14:22:00;1.05;;;0.77;;
25015;SDS011;13029;46.286;7.488;2022-10-16T14:24:30;4.10;;;1.08;;
25015;SDS011;13029;46.286;7.488;2022-10-16T14:26:58;1.02;;;0.93;;
25015;SDS011;13029;46.286;7.488;2022-10-16T14:29:24;1.05;;;0.95;;
25015;SDS011;13029;46.286;7.488;2022-10-16T14:31:54;1.45;;;1.15;;
25015;SDS011;13029;46.286;7.488;2022-10-16T14:34:34;1.20;;;1.10;;
25015;SDS011;13029;46.286;7.488;2022-10-16T14:37:23;1.88;;;0.90;;
25015;SDS011;13029;46.286;7.488;2022-10-16T14:39:51;1.27;;;1.10;;
25015;SDS011;13029;46.286;7.488;2022-10-16T14:42:17;8.40;;;1.20;;
25015;SDS011;13029;46.286;7.488;2022-10-16T14:44:44;1.02;;;0.93;;
25015;SDS011;13029;46.286;7.488;2022-10-16T14:47:15;2.25;;;0.90;;
25015;SDS011;13029;46.286;7.488;2022-10-16T14:49:42;2.92;;;1.15;;
25015;SDS011;13029;46.286;7.488;2022-10-16T14:52:11;0.80;;;0.80;;
25015;SDS011;13029;46.286;7.488;2022-10-16T14:54:39;1.20;;;0.80;;
25015;SDS011;13029;46.286;7.488;2022-10-16T14:57:05;0.80;;;0.80;;
25015;SDS011;13029;46.286;7.488;2022-10-16T14:59:41;0.80;;;0.80;;
25015;SDS011;13029;46.286;7.488;2022-10-16T15:02:30;1.25;;;1.10;;
25015;SDS011;13029;46.286;7.488;2022-10-16T15:04:57;2.15;;;1.00;;
25015;SDS011;13029;46.286;7.488;2022-10-16T15:07:23;1.33;;;1.02;;
25015;SDS011;13029;46.286;7.488;2022-10-16T15:09:48;1.08;;;0.98;;
25015;SDS011;13029;46.286;7.488;2022-10-16T15:12:14;1.20;;;1.02;;
25015;SDS011;13029;46.286;7.488;2022-10-16T15:14:39;1.10;;;1.00;;
25015;SDS011;13029;46.286;7.488;2022-10-16T15:17:05;5.38;;;1.10;;
25015;SDS011;13029;46.286;7.488;2022-10-16T15:19:30;1.20;;;1.10;;
25015;SDS011;13029;46.286;7.488;2022-10-16T15:21:55;1.55;;;1.00;;
25015;SDS011;13029;46.286;7.488;2022-10-16T15:24:21;2.60;;;1.08;;
25015;SDS011;13029;46.286;7.488;2022-10-16T15:26:46;1.10;;;0.95;;
25015;SDS011;13029;46.286;7.488;2022-10-16T15:29:12;1.58;;;1.00;;
25015;SDS011;13029;46.286;7.488;2022-10-16T15:31:37;1.40;;;1.20;;
25015;SDS011;13029;46.286;7.488;2022-10-16T15:34:03;0.98;;;0.90;;
25015;SDS011;13029;46.286;7.488;2022-10-16T15:36:31;1.75;;;1.20;;
25015;SDS011;13029;46.286;7.488;2022-10-16T15:39:05;1.10;;;1.00;;
25015;SDS011;13029;46.286;7.488;2022-10-16T15:41:33;1.25;;;1.10;;
25015;SDS011;13029;46.286;7.488;2022-10-16T15:43:59;1.25;;;1.00;;
25015;SDS011;13029;46.286;7.488;2022-10-16T15:46:24;2.08;;;1.27;;
25015;SDS011;13029;46.286;7.488;2022-10-16T15:48:50;3.20;;;1.08;;
25015;SDS011;13029;46.286;7.488;2022-10-16T15:51:16;2.13;;;1.17;;
25015;SDS011;13029;46.286;7.488;2022-10-16T15:53:42;1.77;;;1.20;;
25015;SDS011;13029;46.286;7.488;2022-10-16T15:56:08;1.10;;;0.93;;
25015;SDS011;13029;46.286;7.488;2022-10-16T15:58:35;1.50;;;1.15;;
25015;SDS011;13029;46.286;7.488;2022-10-16T16:01:01;2.70;;;1.17;;
25015;SDS011;13029;46.286;7.488;2022-10-16T16:03:27;1.60;;;1.13;;
25015;SDS011;13029;46.286;7.488;2022-10-16T16:05:53;0.82;;;0.82;;
25015;SDS011;13029;46.286;7.488;2022-10-16T16:08:19;1.10;;;1.00;;
25015;SDS011;13029;46.286;7.488;2022-10-16T16:10:44;1.33;;;1.10;;
25015;SDS011;13029;46.286;7.488;2022-10-16T16:13:10;2.50;;;1.15;;
25015;SDS011;13029;46.286;7.488;2022-10-16T16:15:38;1.48;;;1.20;;
25015;SDS011;13029;46.286;7.488;2022-10-16T16:18:04;1.50;;;1.17;;
25015;SDS011;13029;46.286;7.488;2022-10-16T16:20:30;2.47;;;1.20;;
25015;SDS011;13029;46.286;7.488;2022-10-16T16:22:56;2.65;;;1.30;;
25015;SDS011;13029;46.286;7.488;2022-10-16T16:25:21;1.50;;;1.20;;
25015;SDS011;13029;46.286;7.488;2022-10-16T16:27:47;3.22;;;1.52;;
25015;SDS011;13029;46.286;7.488;2022-10-16T16:30:12;5.90;;;1.27;;
25015;SDS011;13029;46.286;7.488;2022-10-16T16:32:37;1.70;;;1.45;;
25015;SDS011;13029;46.286;7.488;2022-10-16T16:35:03;1.50;;;1.40;;
25015;SDS011;13029;46.286;7.488;2022-10-16T16:37:29;1.58;;;1.40;;
25015;SDS011;13029;46.286;7.488;2022-10-16T16:39:55;1.38;;;1.20;;
25015;SDS011;13029;46.286;7.488;2022-10-16T16:42:23;4.25;;;1.65;;